Archival Weather

Yakutsk

Yakutsk, Russia (UEEE)

Report from: Monday, February 6, 2023 4:00 PM JST
Current time: Wednesday, May 29, 2024 4:31 PM JST

Current weather – Weather history – Daily summaries
Weather forecast

Present weatherMist
Temperature-38.0°C (-36.4°F)
Wind chill-46.7°C (-52.1°F)
Dew point-42.0°C (-43.6°F)
Winds 3.9 kts (2 m/s, 4.5 mph) South (180°)
Visibility3.1 mi. (5 km)
Altimeter30.27 in.Hg (1025 mB)
Precip. events QF 6:40 PM
Relative humidity66 %
Density altitude-7,506 ft. (-2,288 m)
Remarks No significant changes expected in the next two hours
Flight conditions Marginal Visual Meteorological Conditions
Raw dataUEEE 060700Z 18002MPS 5000 BR NSC M38/M42 Q1025 R23L/490150 NOSIG RMK QFE760
An error has occurred. This application may no longer respond until reloaded. Reload 🗙